Time;durP1;ratioP1;P1;durP2;ratioP2;P2;SDS_P1;SDS_P2;PMS_P1;PMS_P2;Temp;Humidity;BMP_temperature;BMP_pressure;BME280_temperature;BME280_humidity;BME280_pressure;Samples;Min_cycle;Max_cycle;Signal;HPM_P1;HPM_P2
2022/01/30 00:01:43;;;;;;;19.20;7.18;;;7.00;99.20;;;;;;4988830;28;20443;-75
2022/01/30 00:04:09;;;;;;;17.38;6.88;;;7.00;99.50;;;;;;4987419;28;20054;-75
2022/01/30 00:06:34;;;;;;;19.45;6.35;;;7.00;99.40;;;;;;4989619;28;20037;-76
2022/01/30 00:09:00;;;;;;;15.77;6.07;;;7.00;99.00;;;;;;4997537;28;20434;-76
2022/01/30 00:11:32;;;;;;;21.63;6.40;;;;;;;;;;5001497;28;20125;-76
2022/01/30 00:13:59;;;;;;;16.58;5.55;;;7.00;98.40;;;;;;5002311;28;20155;-76
2022/01/30 00:16:30;;;;;;;18.60;6.72;;;7.00;98.60;;;;;;4984626;28;20638;-76
2022/01/30 00:19:07;;;;;;;23.55;6.38;;;7.00;99.00;;;;;;4984057;28;20061;-76
2022/01/30 00:21:38;;;;;;;20.92;6.78;;;7.00;99.90;;;;;;5022182;28;20453;-76
2022/01/30 00:24:13;;;;;;;16.35;5.65;;;7.00;99.90;;;;;;4998850;28;20046;-76
2022/01/30 00:26:40;;;;;;;20.17;5.30;;;6.90;99.90;;;;;;4983403;28;20125;-76
2022/01/30 00:29:07;;;;;;;21.83;6.15;;;6.80;99.90;;;;;;5001986;28;20037;-77
2022/01/30 00:31:36;;;;;;;18.63;5.07;;;6.80;99.90;;;;;;5005562;28;20042;-77
2022/01/30 00:34:02;;;;;;;14.05;4.60;;;6.70;99.90;;;;;;5006593;28;20482;-77
2022/01/30 00:36:31;;;;;;;15.20;4.15;;;6.70;99.90;;;;;;5005230;28;20049;-77
2022/01/30 00:38:58;;;;;;;19.95;5.63;;;6.60;99.90;;;;;;5004329;28;20104;-77
2022/01/30 00:41:25;;;;;;;16.13;4.90;;;6.50;99.90;;;;;;5006697;28;20137;-76
2022/01/30 00:43:51;;;;;;;13.85;5.45;;;6.50;99.90;;;;;;4987554;28;20528;-76
2022/01/30 00:46:17;;;;;;;25.17;6.18;;;6.40;99.90;;;;;;5004693;28;20041;-76
2022/01/30 00:48:42;;;;;;;22.00;7.20;;;6.40;99.90;;;;;;5008272;28;20045;-76
2022/01/30 00:51:08;;;;;;;19.17;8.25;;;6.30;99.90;;;;;;5003760;28;20116;-77
2022/01/30 00:53:34;;;;;;;23.02;7.32;;;6.30;99.90;;;;;;5005052;28;20049;-76
2022/01/30 00:56:00;;;;;;;23.70;7.93;;;6.30;99.90;;;;;;5004905;28;20473;-77
2022/01/30 00:58:25;;;;;;;34.92;8.00;;;6.30;99.90;;;;;;4989813;28;20111;-77
2022/01/30 01:00:52;;;;;;;35.95;8.55;;;6.30;99.90;;;;;;4989049;28;20037;-77
2022/01/30 01:03:18;;;;;;;23.98;7.88;;;6.30;99.90;;;;;;5005648;28;20091;-76
2022/01/30 01:05:44;;;;;;;32.13;9.65;;;6.30;99.90;;;;;;5006922;28;20050;-76
2022/01/30 01:08:16;;;;;;;32.30;7.60;;;6.30;99.90;;;;;;5001379;28;20113;-76
2022/01/30 01:10:49;;;;;;;25.63;7.88;;;6.30;99.90;;;;;;5007616;28;20049;-76
2022/01/30 01:23:56;;;;;;;21.63;6.60;;;6.20;99.90;;;;;;4999829;28;20133;-76
2022/01/30 01:26:23;;;;;;;16.08;6.35;;;6.20;99.90;;;;;;5019518;28;20048;-77
2022/01/30 01:28:50;;;;;;;19.75;6.05;;;6.30;99.90;;;;;;5000602;28;20355;-76
2022/01/30 01:31:17;;;;;;;25.02;8.57;;;6.30;99.90;;;;;;4988308;28;20100;-76
2022/01/30 01:36:10;;;;;;;28.38;8.75;;;6.40;99.90;;;;;;5010436;28;20087;-77
2022/01/30 01:38:36;;;;;;;20.13;6.90;;;6.30;99.90;;;;;;5021844;28;20522;-76
2022/01/30 01:41:02;;;;;;;29.95;7.72;;;6.30;99.90;;;;;;5006508;28;20316;-77
2022/01/30 01:43:28;;;;;;;25.05;8.32;;;6.30;99.90;;;;;;5002443;28;20506;-76
2022/01/30 01:45:56;;;;;;;23.67;7.38;;;6.30;99.90;;;;;;4986776;28;20049;-76
2022/01/30 01:48:22;;;;;;;35.53;8.82;;;6.30;99.90;;;;;;5006981;28;20069;-76
2022/01/30 01:51:06;;;;;;;24.92;8.15;;;6.40;99.90;;;;;;4989342;28;20096;-76
2022/01/30 01:53:32;;;;;;;23.27;7.53;;;6.40;99.90;;;;;;5004425;28;20609;-77
2022/01/30 01:55:58;;;;;;;18.98;7.43;;;6.40;99.90;;;;;;5007947;28;20084;-76
2022/01/30 01:58:25;;;;;;;25.20;7.85;;;6.40;99.90;;;;;;5006444;28;20398;-76
2022/01/30 02:00:51;;;;;;;20.13;7.57;;;6.40;99.90;;;;;;5004923;28;20049;-77
2022/01/30 02:03:18;;;;;;;25.00;9.15;;;6.50;99.90;;;;;;5006508;28;20046;-77
2022/01/30 02:05:51;;;;;;;21.85;8.88;;;6.50;99.90;;;;;;4987033;28;20526;-77
2022/01/30 02:24:35;;;;;;;18.90;7.35;;;6.50;99.90;;;;;;5002873;28;20132;-76
2022/01/30 02:27:01;;;;;;;23.92;7.53;;;6.50;99.90;;;;;;4991728;28;20122;-77
2022/01/30 02:29:27;;;;;;;37.03;9.13;;;6.40;99.90;;;;;;5012792;28;20513;-76
2022/01/30 02:31:56;;;;;;;24.80;7.55;;;6.40;99.90;;;;;;4984561;28;20112;-76
2022/01/30 02:34:30;;;;;;;21.75;7.30;;;6.40;99.90;;;;;;5006709;28;20057;-76
2022/01/30 02:36:57;;;;;;;28.65;7.88;;;6.40;99.90;;;;;;5008247;28;20049;-76
2022/01/30 02:39:23;;;;;;;28.45;7.45;;;6.40;99.90;;;;;;5008110;28;20128;-76
2022/01/30 02:41:49;;;;;;;23.17;6.57;;;6.40;99.90;;;;;;5008260;28;20041;-76
2022/01/30 02:46:51;;;;;;;20.88;6.60;;;6.40;99.90;;;;;;5029810;28;20049;-76
2022/01/30 02:52:06;;;;;;;25.55;9.45;;;6.40;99.90;;;;;;5013548;28;20073;-76
2022/01/30 02:54:31;;;;;;;22.55;7.00;;;6.40;99.90;;;;;;5029190;28;20110;-76
2022/01/30 02:56:58;;;;;;;23.10;7.90;;;6.40;99.90;;;;;;5012037;28;20086;-76
2022/01/30 02:59:25;;;;;;;29.45;7.75;;;6.40;99.90;;;;;;5034414;28;20049;-76
2022/01/30 03:01:51;;;;;;;23.05;8.55;;;6.40;99.90;;;;;;5011321;28;20037;-76
2022/01/30 03:04:17;;;;;;;23.70;7.43;;;6.30;99.90;;;;;;5010853;28;20049;-76
2022/01/30 03:06:44;;;;;;;27.70;8.20;;;6.40;99.90;;;;;;4998180;28;20080;-76
2022/01/30 03:09:11;;;;;;;37.35;8.55;;;6.30;99.90;;;;;;4994365;28;20383;-76
2022/01/30 03:11:37;;;;;;;24.65;8.57;;;6.30;99.90;;;;;;5014167;28;20470;-76
2022/01/30 03:14:05;;;;;;;27.73;7.90;;;6.30;99.90;;;;;;5008107;28;20041;-76
2022/01/30 03:16:30;;;;;;;36.47;10.05;;;6.30;99.90;;;;;;4993017;28;20121;-76
2022/01/30 03:18:56;;;;;;;30.75;9.45;;;6.30;99.90;;;;;;5012008;28;20034;-76
2022/01/30 03:21:22;;;;;;;35.45;11.00;;;6.30;99.90;;;;;;4996978;28;20037;-76
2022/01/30 03:23:48;;;;;;;24.05;9.63;;;6.30;99.90;;;;;;4992732;28;20049;-76
2022/01/30 03:26:15;;;;;;;25.30;10.48;;;6.40;99.90;;;;;;5014276;28;20077;-76
2022/01/30 03:28:43;;;;;;;22.60;9.15;;;6.40;99.90;;;;;;4996036;28;20184;-76
2022/01/30 03:31:12;;;;;;;39.42;10.52;;;6.40;99.90;;;;;;5016385;28;20518;-76
2022/01/30 03:33:38;;;;;;;37.72;11.02;;;6.40;99.90;;;;;;5013487;28;20045;-76
2022/01/30 03:36:05;;;;;;;29.65;10.88;;;6.40;99.90;;;;;;4994043;28;20053;-76
2022/01/30 03:38:31;;;;;;;35.05;11.63;;;6.40;99.90;;;;;;5010589;28;20048;-76
2022/01/30 03:40:57;;;;;;;37.00;10.73;;;6.50;99.90;;;;;;4992814;28;20041;-76
2022/01/30 03:43:22;;;;;;;31.27;10.15;;;6.40;99.90;;;;;;5026392;28;20033;-76
2022/01/30 03:45:49;;;;;;;27.40;8.75;;;6.40;99.90;;;;;;5010439;28;20038;-76
2022/01/30 03:48:15;;;;;;;33.60;10.20;;;6.50;99.90;;;;;;5009272;28;20624;-76
2022/01/30 03:50:45;;;;;;;27.40;8.95;;;6.40;99.90;;;;;;5012350;28;20037;-76
2022/01/30 03:53:11;;;;;;;24.85;8.65;;;6.40;99.90;;;;;;5007654;28;20029;-76
2022/01/30 03:55:38;;;;;;;29.10;8.77;;;6.40;99.90;;;;;;5012227;28;20037;-76
2022/01/30 03:58:07;;;;;;;27.35;8.35;;;6.40;99.90;;;;;;5009385;28;20045;-76
2022/01/30 04:00:33;;;;;;;25.52;8.88;;;6.40;99.90;;;;;;5013700;28;20037;-76
2022/01/30 04:02:59;;;;;;;30.40;9.45;;;6.40;99.90;;;;;;5012572;28;20637;-76
2022/01/30 04:05:25;;;;;;;24.65;8.10;;;6.40;99.90;;;;;;5010590;28;20073;-76
2022/01/30 04:07:51;;;;;;;26.33;8.52;;;6.40;99.90;;;;;;4991948;28;20434;-79
2022/01/30 04:10:17;;;;;;;37.40;10.20;;;6.40;99.90;;;;;;5011977;28;20506;-76
2022/01/30 04:12:43;;;;;;;29.13;8.57;;;6.40;99.90;;;;;;5010604;28;20037;-76
2022/01/30 04:15:11;;;;;;;33.75;8.40;;;6.50;95.70;;;;;;5010876;28;20049;-76
2022/01/30 04:17:39;;;;;;;26.77;9.45;;;6.50;96.70;;;;;;5011169;28;20045;-76
2022/01/30 04:20:07;;;;;;;36.55;10.88;;;6.50;97.20;;;;;;5009499;28;20139;-76
2022/01/30 04:22:34;;;;;;;31.23;9.60;;;6.50;96.10;;;;;;5007880;28;20042;-76
2022/01/30 04:25:00;;;;;;;31.50;9.23;;;6.50;95.10;;;;;;4995990;28;20041;-76
2022/01/30 04:27:27;;;;;;;28.70;9.40;;;6.50;96.10;;;;;;5010211;28;20504;-76
2022/01/30 04:29:53;;;;;;;30.77;10.20;;;6.50;95.10;;;;;;5013041;28;20063;-76
2022/01/30 04:32:19;;;;;;;45.08;11.23;;;6.50;95.90;;;;;;4996538;28;20512;-76
2022/01/30 04:34:53;;;;;;;30.00;10.05;;;6.50;95.70;;;;;;5009394;28;20088;-76
2022/01/30 04:37:27;;;;;;;34.65;9.57;;;6.50;93.50;;;;;;5011525;28;20059;-76
2022/01/30 04:40:16;;;;;;;32.78;9.63;;;6.50;94.50;;;;;;5010586;28;20044;-76
2022/01/30 04:58:47;;;;;;;21.52;8.80;;;6.40;93.70;;;;;;5024971;28;20046;-76
2022/01/30 05:01:20;;;;;;;34.10;10.98;;;6.50;92.90;;;;;;5008253;28;20047;-76
2022/01/30 05:09:22;;;;;;;28.88;9.80;;;6.40;93.30;;;;;;5002106;28;20038;-76
2022/01/30 05:11:47;;;;;;;29.58;9.52;;;6.40;92.20;;;;;;5011728;28;20205;-76
2022/01/30 05:14:15;;;;;;;28.00;10.25;;;6.40;92.70;;;;;;4994711;28;20501;-76
2022/01/30 05:16:41;;;;;;;30.25;9.48;;;6.30;92.60;;;;;;5008428;28;20746;-76
2022/01/30 05:19:06;;;;;;;25.50;10.35;;;6.40;91.90;;;;;;5012696;28;20113;-76
2022/01/30 05:21:32;;;;;;;38.47;9.68;;;6.30;91.70;;;;;;4994443;28;20049;-76
2022/01/30 05:23:58;;;;;;;26.52;10.40;;;6.30;91.70;;;;;;5011380;28;20067;-76
2022/01/30 05:26:26;;;;;;;29.80;9.20;;;6.30;91.50;;;;;;5009656;28;20041;-76
2022/01/30 05:28:52;;;;;;;32.25;10.95;;;6.30;91.00;;;;;;5013546;28;20083;-76
2022/01/30 05:31:18;;;;;;;29.58;9.98;;;6.30;90.60;;;;;;4992136;28;20038;-77
2022/01/30 05:33:44;;;;;;;27.20;9.55;;;6.20;91.30;;;;;;5007124;28;20051;-77
2022/01/30 05:36:11;;;;;;;28.75;9.85;;;6.20;90.90;;;;;;4990921;28;20119;-77
2022/01/30 05:38:37;;;;;;;39.92;10.10;;;6.20;90.60;;;;;;4994310;28;20055;-77
2022/01/30 05:41:03;;;;;;;28.52;10.48;;;6.20;90.90;;;;;;5026013;28;20102;-77
2022/01/30 05:43:32;;;;;;;28.98;9.13;;;6.20;91.10;;;;;;5003997;28;20099;-77
2022/01/30 05:46:16;;;;;;;40.63;10.75;;;6.20;91.40;;;;;;5027248;28;20045;-77
2022/01/30 05:48:42;;;;;;;27.60;10.23;;;6.20;91.20;;;;;;4994299;28;20051;-77
2022/01/30 05:51:08;;;;;;;26.77;9.30;;;6.20;90.50;;;;;;5009598;28;20033;-77
2022/01/30 05:53:34;;;;;;;33.50;11.55;;;6.20;91.00;;;;;;5009573;28;20061;-77
2022/01/30 05:56:00;;;;;;;35.80;11.05;;;6.30;91.00;;;;;;4976578;28;20072;-77
2022/01/30 05:58:26;;;;;;;34.25;10.35;;;6.30;91.30;;;;;;5007076;28;20864;-77
2022/01/30 06:00:51;;;;;;;34.13;10.90;;;6.30;91.00;;;;;;5012038;28;20041;-76
2022/01/30 06:03:17;;;;;;;32.08;9.15;;;6.30;91.00;;;;;;5010820;28;20040;-77
2022/01/30 06:05:46;;;;;;;37.50;10.20;;;6.30;90.80;;;;;;5008013;28;20045;-77
2022/01/30 06:08:16;;;;;;;30.38;10.40;;;6.20;90.90;;;;;;5014308;28;20091;-77
2022/01/30 06:10:41;;;;;;;27.95;9.52;;;6.20;90.50;;;;;;4977601;28;20040;-77
2022/01/30 06:13:07;;;;;;;23.00;9.80;;;6.30;90.30;;;;;;4994544;28;20300;-76
2022/01/30 06:15:33;;;;;;;30.92;11.10;;;6.20;90.30;;;;;;5009611;28;20397;-77
2022/01/30 06:17:59;;;;;;;34.50;11.05;;;6.20;90.10;;;;;;4998014;28;20038;-77
2022/01/30 06:20:24;;;;;;;41.78;12.27;;;6.20;90.50;;;;;;4997074;28;20042;-76
2022/01/30 06:22:50;;;;;;;27.25;9.95;;;6.20;91.10;;;;;;5015622;28;20052;-77
2022/01/30 06:25:16;;;;;;;36.80;12.68;;;6.20;91.40;;;;;;5012902;28;20049;-77
2022/01/30 06:27:42;;;;;;;32.42;10.70;;;6.20;92.10;;;;;;4992895;28;20080;-76
2022/01/30 06:30:09;;;;;;;34.22;11.18;;;6.20;92.60;;;;;;4994928;28;20137;-76
2022/01/30 06:32:35;;;;;;;31.08;11.45;;;6.30;92.50;;;;;;5011053;28;20058;-76
2022/01/30 06:35:02;;;;;;;30.52;10.50;;;6.20;92.70;;;;;;5027118;28;20081;-77
2022/01/30 06:37:27;;;;;;;33.08;9.35;;;6.30;92.20;;;;;;5011978;28;20232;-76
2022/01/30 06:39:53;;;;;;;24.38;9.48;;;6.30;92.70;;;;;;5009247;28;20060;-77
2022/01/30 06:42:19;;;;;;;31.85;11.45;;;6.30;92.90;;;;;;5011376;28;20064;-77
2022/01/30 06:44:45;;;;;;;26.33;10.15;;;6.30;93.00;;;;;;4963567;28;20057;-77
2022/01/30 06:47:11;;;;;;;31.85;11.43;;;6.30;93.00;;;;;;5012080;28;20053;-76
2022/01/30 06:49:37;;;;;;;30.77;10.30;;;6.30;93.20;;;;;;4999754;28;20038;-76
2022/01/30 06:52:06;;;;;;;41.20;13.63;;;6.30;93.00;;;;;;5010337;28;20120;-76
2022/01/30 06:54:32;;;;;;;32.22;9.75;;;6.30;93.00;;;;;;5031099;28;20037;-76
2022/01/30 06:56:58;;;;;;;39.85;10.35;;;6.20;92.30;;;;;;5010450;28;20064;-76
2022/01/30 06:59:23;;;;;;;27.80;11.60;;;6.20;92.30;;;;;;4995465;28;20044;-76
2022/01/30 07:01:52;;;;;;;37.88;12.63;;;6.20;92.00;;;;;;5014269;28;20049;-77
2022/01/30 07:04:19;;;;;;;37.13;11.02;;;6.20;91.90;;;;;;5014262;28;20056;-76
2022/01/30 07:06:44;;;;;;;38.05;11.30;;;6.20;91.00;;;;;;5007266;28;20077;-77
2022/01/30 07:09:10;;;;;;;46.53;10.88;;;6.20;90.80;;;;;;5014269;28;20065;-76
2022/01/30 07:11:36;;;;;;;21.25;9.00;;;6.20;90.80;;;;;;4999785;28;20038;-76
2022/01/30 07:14:01;;;;;;;29.50;9.95;;;6.10;90.40;;;;;;5019953;28;20080;-76
2022/01/30 07:16:27;;;;;;;29.83;10.25;;;6.10;89.50;;;;;;5001779;28;20072;-77
2022/01/30 07:18:53;;;;;;;45.88;12.00;;;6.10;89.10;;;;;;4998397;28;20073;-77
2022/01/30 07:21:19;;;;;;;44.55;14.05;;;6.10;89.10;;;;;;5010888;28;20038;-76
2022/01/30 07:23:45;;;;;;;30.45;10.38;;;6.10;87.60;;;;;;5030462;28;20613;-76
2022/01/30 07:26:11;;;;;;;39.50;12.70;;;6.10;88.10;;;;;;4997488;28;20879;-77
2022/01/30 07:28:36;;;;;;;35.72;10.93;;;6.10;88.10;;;;;;5012664;28;20104;-76
2022/01/30 07:31:02;;;;;;;35.22;12.68;;;6.10;88.20;;;;;;4982107;28;20048;-77
2022/01/30 07:33:28;;;;;;;35.67;12.68;;;6.10;87.70;;;;;;4978525;28;20121;-77
2022/01/30 07:35:56;;;;;;;39.35;10.77;;;6.20;88.70;;;;;;5028854;28;20137;-76
2022/01/30 07:38:27;;;;;;;38.22;10.38;;;6.10;89.40;;;;;;5014457;28;20048;-77
2022/01/30 07:40:53;;;;;;;34.08;10.18;;;6.10;89.20;;;;;;5010952;28;20540;-76
2022/01/30 07:43:19;;;;;;;30.45;10.18;;;6.10;89.00;;;;;;5011179;28;20037;-76
2022/01/30 07:45:45;;;;;;;36.17;10.82;;;6.10;89.50;;;;;;5013628;28;20045;-77
2022/01/30 07:48:11;;;;;;;35.22;11.85;;;6.10;89.40;;;;;;5011141;28;20041;-77
2022/01/30 07:50:37;;;;;;;24.63;9.98;;;6.10;89.50;;;;;;4996486;28;20124;-76
2022/01/30 07:53:03;;;;;;;36.22;10.55;;;6.10;89.50;;;;;;5019600;28;20116;-77
2022/01/30 07:55:28;;;;;;;36.90;11.63;;;6.00;89.10;;;;;;5004389;28;20041;-76
2022/01/30 07:57:55;;;;;;;34.70;11.80;;;6.00;88.80;;;;;;5001785;28;20037;-76
2022/01/30 08:00:21;;;;;;;40.85;11.55;;;6.00;89.10;;;;;;4978895;28;20073;-76
2022/01/30 08:02:47;;;;;;;33.10;11.13;;;6.00;89.20;;;;;;4994747;28;20076;-76
2022/01/30 08:05:13;;;;;;;38.83;11.65;;;5.90;88.90;;;;;;4996988;28;20172;-76
2022/01/30 08:07:39;;;;;;;24.00;9.43;;;5.90;88.30;;;;;;5011429;28;20088;-76
2022/01/30 08:10:05;;;;;;;47.65;11.07;;;;;;;;;;5013042;28;20390;-76
2022/01/30 08:12:31;;;;;;;23.27;8.55;;;5.90;88.20;;;;;;5012784;28;20039;-77
2022/01/30 08:14:58;;;;;;;22.13;8.73;;;5.80;86.60;;;;;;4997495;28;20064;-76
2022/01/30 08:17:23;;;;;;;30.63;9.02;;;5.80;85.30;;;;;;4994358;28;20233;-76
2022/01/30 08:19:51;;;;;;;29.73;9.35;;;;;;;;;;4995923;28;20045;-76
2022/01/30 08:22:17;;;;;;;33.65;9.57;;;;;;;;;;5011555;28;20045;-76
2022/01/30 08:24:43;;;;;;;25.23;9.43;;;;;;;;;;5018383;28;20112;-76
2022/01/30 08:27:10;;;;;;;24.17;7.95;;;;;;;;;;4984865;28;20087;-76
2022/01/30 08:29:37;;;;;;;31.35;9.15;;;;;;;;;;5013580;28;20076;-78
2022/01/30 08:32:04;;;;;;;34.83;11.60;;;5.80;84.90;;;;;;5011877;28;20047;-78
2022/01/30 08:34:44;;;;;;;21.77;8.75;;;5.80;82.40;;;;;;4972003;28;20552;-77
2022/01/30 08:37:10;;;;;;;26.02;8.77;;;5.80;82.90;;;;;;5002414;28;20178;-78
2022/01/30 08:39:36;;;;;;;22.67;7.88;;;5.80;83.00;;;;;;4992218;28;20033;-79
2022/01/30 08:42:02;;;;;;;24.65;8.65;;;5.80;82.50;;;;;;4987379;28;20080;-79
2022/01/30 08:44:28;;;;;;;30.60;9.85;;;5.80;82.60;;;;;;5002440;28;20129;-79
2022/01/30 08:46:53;;;;;;;27.55;8.25;;;5.80;83.00;;;;;;4991249;28;20037;-79
2022/01/30 08:49:19;;;;;;;28.30;9.77;;;5.80;82.80;;;;;;4975138;28;20156;-78
2022/01/30 08:51:45;;;;;;;31.60;8.60;;;5.80;82.90;;;;;;4987243;28;20027;-78
2022/01/30 08:54:11;;;;;;;50.58;11.20;;;5.80;83.30;;;;;;4962611;28;20478;-78
2022/01/30 08:56:36;;;;;;;22.20;8.82;;;5.80;83.30;;;;;;4978782;28;20366;-79
2022/01/30 08:59:09;;;;;;;29.00;10.95;;;5.90;83.50;;;;;;5124025;27;20391;-63
2022/01/30 09:01:35;;;;;;;24.67;9.20;;;5.90;83.60;;;;;;5114882;27;20044;-62
2022/01/30 09:04:03;;;;;;;36.45;11.35;;;5.90;83.90;;;;;;5100825;28;20043;-63
2022/01/30 09:06:29;;;;;;;29.23;9.45;;;5.90;84.10;;;;;;5104652;28;20044;-63
2022/01/30 09:08:55;;;;;;;38.10;9.73;;;6.00;84.70;;;;;;5106818;28;20043;-63
2022/01/30 09:11:21;;;;;;;30.20;9.70;;;6.00;85.20;;;;;;5106202;28;20457;-62
2022/01/30 09:13:46;;;;;;;31.08;8.20;;;6.10;85.70;;;;;;5105268;28;20055;-62
2022/01/30 09:16:12;;;;;;;29.88;11.40;;;6.10;85.50;;;;;;5106344;28;20032;-62
2022/01/30 09:18:39;;;;;;;30.40;10.93;;;6.10;86.00;;;;;;5104124;28;20072;-63
2022/01/30 09:21:05;;;;;;;31.20;10.10;;;6.10;86.20;;;;;;5107150;27;20044;-62
2022/01/30 09:23:31;;;;;;;33.65;9.68;;;6.20;87.00;;;;;;5097666;28;20058;-63
2022/01/30 09:25:57;;;;;;;38.17;12.55;;;6.20;86.60;;;;;;5100267;28;20032;-63
2022/01/30 09:28:22;;;;;;;38.42;11.57;;;6.30;86.90;;;;;;5094077;28;20039;-63
2022/01/30 09:30:48;;;;;;;34.97;10.75;;;6.30;87.60;;;;;;5092362;28;20039;-62
2022/01/30 09:33:14;;;;;;;32.00;12.43;;;6.40;86.40;;;;;;5091876;28;20048;-63
2022/01/30 09:35:40;;;;;;;34.58;11.32;;;6.40;87.20;;;;;;5097384;28;20044;-62
2022/01/30 09:38:06;;;;;;;44.92;12.18;;;6.50;86.90;;;;;;5098036;28;20582;-63
2022/01/30 09:40:32;;;;;;;36.85;10.98;;;6.40;86.70;;;;;;5092350;28;20040;-63
2022/01/30 09:42:58;;;;;;;28.02;10.73;;;6.40;87.20;;;;;;5100369;28;20135;-62
2022/01/30 09:45:25;;;;;;;32.08;10.13;;;6.40;86.30;;;;;;5097331;28;20582;-63
2022/01/30 09:47:51;;;;;;;35.65;10.65;;;6.40;86.50;;;;;;5100719;28;20044;-63
2022/01/30 09:50:21;;;;;;;36.25;11.15;;;6.50;86.60;;;;;;5108310;28;20044;-63
2022/01/30 09:52:47;;;;;;;29.05;10.63;;;6.50;84.50;;;;;;5098756;28;20140;-63
2022/01/30 09:55:15;;;;;;;30.40;9.75;;;6.50;85.50;;;;;;5096838;28;20044;-63
2022/01/30 09:57:41;;;;;;;31.85;9.65;;;6.50;84.60;;;;;;5101526;28;20420;-63
2022/01/30 10:00:09;;;;;;;24.42;9.60;;;6.50;84.60;;;;;;5097738;28;20075;-63
2022/01/30 10:02:35;;;;;;;32.28;10.93;;;6.60;84.50;;;;;;5097042;28;20036;-63
2022/01/30 10:05:01;;;;;;;35.05;9.98;;;6.70;84.80;;;;;;5099900;28;20546;-63
2022/01/30 10:07:45;;;;;;;22.02;9.27;;;6.70;83.80;;;;;;5095199;28;20066;-63
2022/01/30 10:10:16;;;;;;;28.73;10.65;;;6.80;83.40;;;;;;5099784;28;20047;-63
2022/01/30 10:13:01;;;;;;;33.03;9.52;;;6.90;83.50;;;;;;5088361;28;20076;-63
2022/01/30 10:15:28;;;;;;;42.35;12.30;;;6.90;81.30;;;;;;5084702;28;20047;-63
2022/01/30 10:17:53;;;;;;;30.80;10.93;;;6.90;82.40;;;;;;5072065;28;20033;-63
2022/01/30 10:20:24;;;;;;;26.52;8.98;;;6.90;82.50;;;;;;5093760;28;20384;-63
2022/01/30 10:22:54;;;;;;;29.52;9.82;;;6.90;82.50;;;;;;5085771;28;20484;-63
2022/01/30 10:25:46;;;;;;;27.00;10.93;;;6.90;82.50;;;;;;5076436;28;20443;-62
2022/01/30 10:28:19;;;;;;;29.92;9.73;;;7.00;81.00;;;;;;5092577;28;20075;-63
2022/01/30 10:30:53;;;;;;;25.42;8.63;;;7.00;83.10;;;;;;5090180;28;20035;-63
2022/01/30 10:33:49;;;;;;;32.75;9.75;;;7.00;81.80;;;;;;5086820;28;20031;-63
2022/01/30 10:36:25;;;;;;;35.75;9.57;;;7.00;82.50;;;;;;5089181;28;20181;-63
2022/01/30 10:39:01;;;;;;;28.52;10.48;;;7.00;82.50;;;;;;5089240;28;20075;-63
2022/01/30 10:41:35;;;;;;;35.67;10.55;;;7.10;82.90;;;;;;5088154;28;20075;-64
2022/01/30 10:44:03;;;;;;;30.88;9.30;;;7.10;83.80;;;;;;5089289;28;20028;-63
2022/01/30 10:46:38;;;;;;;34.05;8.98;;;7.20;82.80;;;;;;5093251;28;20105;-64
2022/01/30 10:49:08;;;;;;;26.20;7.97;;;7.20;81.10;;;;;;5085089;28;20072;-64
2022/01/30 10:51:34;;;;;;;32.65;9.90;;;7.30;79.00;;;;;;5088437;28;20040;-64
2022/01/30 10:54:12;;;;;;;28.40;8.30;;;7.30;79.70;;;;;;5086338;28;20048;-64
2022/01/30 10:56:39;;;;;;;27.00;10.02;;;7.30;79.10;;;;;;5082696;28;20380;-64
2022/01/30 10:59:20;;;;;;;33.30;8.60;;;7.40;75.70;;;;;;5073176;28;20036;-64
2022/01/30 11:01:48;;;;;;;24.95;7.88;;;7.50;78.20;;;;;;5091640;28;20036;-64
2022/01/30 11:04:22;;;;;;;33.15;8.63;;;7.50;78.10;;;;;;5088813;28;20047;-64
2022/01/30 11:06:48;;;;;;;27.58;8.40;;;7.60;76.30;;;;;;5088265;28;20040;-64
2022/01/30 11:09:19;;;;;;;26.45;8.68;;;7.60;77.90;;;;;;5091369;28;20040;-64
2022/01/30 11:11:52;;;;;;;25.48;7.93;;;7.70;77.20;;;;;;5088233;28;20115;-64
2022/01/30 11:14:23;;;;;;;33.47;9.05;;;7.70;77.20;;;;;;5085460;28;20048;-64
2022/01/30 11:17:02;;;;;;;28.90;8.48;;;7.80;77.80;;;;;;5089716;28;20040;-64
2022/01/30 11:19:34;;;;;;;24.15;7.80;;;7.80;77.90;;;;;;5084346;28;20040;-64
2022/01/30 11:22:01;;;;;;;32.03;10.07;;;7.90;78.50;;;;;;5086056;28;20052;-64
2022/01/30 11:24:28;;;;;;;27.02;8.55;;;7.90;77.90;;;;;;5091726;28;20039;-65
2022/01/30 11:26:53;;;;;;;26.60;7.78;;;8.10;75.80;;;;;;5085402;28;20032;-64
2022/01/30 11:29:20;;;;;;;20.80;8.00;;;8.20;75.50;;;;;;5088364;28;20539;-65
2022/01/30 11:31:47;;;;;;;29.20;8.45;;;8.30;76.40;;;;;;5091445;28;20268;-64
2022/01/30 11:34:13;;;;;;;26.55;9.50;;;8.50;76.00;;;;;;5086294;28;20485;-64
2022/01/30 11:36:42;;;;;;;30.17;10.07;;;8.50;72.70;;;;;;5092135;28;20095;-64
2022/01/30 11:39:13;;;;;;;23.98;8.32;;;8.60;74.40;;;;;;5088853;28;20050;-64
2022/01/30 11:41:39;;;;;;;29.02;9.35;;;8.60;74.10;;;;;;5080824;28;20036;-64
2022/01/30 11:44:17;;;;;;;21.33;7.70;;;8.70;74.00;;;;;;5082457;28;20175;-64
2022/01/30 11:47:03;;;;;;;27.48;11.02;;;8.70;72.80;;;;;;5081528;28;20075;-64
2022/01/30 11:49:42;;;;;;;27.33;9.60;;;8.70;73.30;;;;;;5074764;28;20075;-64
2022/01/30 11:52:10;;;;;;;27.00;8.45;;;8.70;74.90;;;;;;5077479;28;20041;-64
2022/01/30 11:54:43;;;;;;;21.67;9.45;;;8.60;75.40;;;;;;5062277;28;20286;-64
2022/01/30 11:57:21;;;;;;;31.50;10.90;;;8.50;75.50;;;;;;5078965;28;20276;-64
2022/01/30 11:59:52;;;;;;;27.13;9.32;;;8.50;74.40;;;;;;5078983;28;20535;-64
2022/01/30 12:02:25;;;;;;;33.72;8.38;;;8.40;73.60;;;;;;5078336;28;20024;-64
2022/01/30 12:05:05;;;;;;;33.60;9.45;;;8.20;74.20;;;;;;5084727;28;20119;-63
2022/01/30 12:07:34;;;;;;;32.50;11.20;;;8.20;75.40;;;;;;5083128;28;20102;-64
2022/01/30 12:10:15;;;;;;;25.70;9.05;;;8.10;74.80;;;;;;5091332;28;20046;-64
2022/01/30 12:13:03;;;;;;;27.30;9.52;;;8.00;75.30;;;;;;5087530;28;20036;-64
2022/01/30 12:15:42;;;;;;;23.10;8.43;;;8.00;75.90;;;;;;5080547;28;20067;-64
2022/01/30 12:18:19;;;;;;;25.35;6.95;;;8.00;73.90;;;;;;5087285;28;20043;-64
2022/01/30 12:21:00;;;;;;;26.40;9.13;;;8.00;73.50;;;;;;5090876;28;20040;-64
2022/01/30 12:23:29;;;;;;;24.02;8.68;;;8.10;72.20;;;;;;5084406;28;20399;-63
2022/01/30 12:26:03;;;;;;;29.05;8.60;;;8.20;73.50;;;;;;5089884;28;20040;-64
2022/01/30 12:28:49;;;;;;;18.70;8.35;;;8.20;72.90;;;;;;5085952;28;20052;-64
2022/01/30 12:31:34;;;;;;;21.02;7.68;;;8.30;72.80;;;;;;5087798;28;20090;-64
2022/01/30 12:34:15;;;;;;;24.42;7.82;;;8.50;73.10;;;;;;5082159;28;20123;-64
2022/01/30 12:36:52;;;;;;;30.55;9.13;;;8.70;72.50;;;;;;5087632;28;20047;-65
2022/01/30 12:39:21;;;;;;;23.60;7.78;;;8.80;72.60;;;;;;5083717;28;20047;-65
2022/01/30 12:41:49;;;;;;;28.42;7.28;;;8.90;71.30;;;;;;5077263;28;20044;-64
2022/01/30 12:44:17;;;;;;;19.30;7.35;;;9.00;71.50;;;;;;5077306;28;20436;-64
2022/01/30 12:46:46;;;;;;;26.45;8.75;;;9.00;71.80;;;;;;5080562;28;20036;-64
2022/01/30 12:49:22;;;;;;;23.67;9.15;;;8.90;71.90;;;;;;5076547;28;20440;-64
2022/01/30 12:52:01;;;;;;;23.58;7.78;;;8.80;72.00;;;;;;5072609;28;20389;-64
2022/01/30 12:54:39;;;;;;;31.95;9.27;;;8.70;71.70;;;;;;5084206;28;20040;-64
2022/01/30 12:57:05;;;;;;;28.92;9.93;;;8.60;71.90;;;;;;5076926;28;20085;-64
2022/01/30 12:59:31;;;;;;;39.00;9.20;;;8.50;71.60;;;;;;5075528;28;20379;-64
2022/01/30 13:02:12;;;;;;;23.60;9.07;;;8.40;71.40;;;;;;5082677;28;20036;-64
2022/01/30 13:04:38;;;;;;;27.27;8.40;;;8.30;72.10;;;;;;5080320;28;20032;-64
2022/01/30 13:07:04;;;;;;;29.08;8.95;;;8.20;72.30;;;;;;5074822;28;20031;-64
2022/01/30 13:09:31;;;;;;;19.38;8.07;;;8.20;73.00;;;;;;5082450;28;20041;-64
2022/01/30 13:12:00;;;;;;;26.30;8.68;;;8.10;73.50;;;;;;5076320;28;20591;-64
2022/01/30 13:14:34;;;;;;;30.48;9.15;;;8.10;73.30;;;;;;5078500;28;20040;-64
2022/01/30 13:17:00;;;;;;;34.13;11.65;;;8.10;74.30;;;;;;5082109;28;20312;-64
2022/01/30 13:19:39;;;;;;;22.90;8.55;;;8.00;74.00;;;;;;5079063;28;20039;-64
2022/01/30 13:22:07;;;;;;;27.67;9.40;;;8.00;74.20;;;;;;5072798;28;20074;-64
2022/01/30 13:24:33;;;;;;;36.80;9.60;;;7.90;74.20;;;;;;5080653;28;20064;-64
2022/01/30 13:27:07;;;;;;;27.98;8.80;;;7.90;74.70;;;;;;5075206;28;20055;-64
2022/01/30 13:29:35;;;;;;;39.13;9.55;;;7.80;74.60;;;;;;5086530;28;20039;-64
2022/01/30 13:32:10;;;;;;;22.75;8.68;;;7.70;75.10;;;;;;5088017;28;20032;-64
2022/01/30 13:34:36;;;;;;;36.45;9.98;;;7.70;75.00;;;;;;5084980;28;20416;-64
2022/01/30 13:37:06;;;;;;;27.45;10.05;;;7.60;75.30;;;;;;5086857;28;20074;-64
2022/01/30 13:39:41;;;;;;;36.70;9.52;;;7.60;75.60;;;;;;5088348;28;20032;-64
2022/01/30 13:47:40;;;;;;;36.42;10.70;;;8.00;76.20;;;;;;5091310;28;20069;-64
2022/01/30 13:50:37;;;;;;;26.60;8.88;;;8.00;75.90;;;;;;5088819;28;20644;-64
2022/01/30 13:53:07;;;;;;;32.92;8.93;;;8.00;75.50;;;;;;5088807;28;20127;-64
2022/01/30 13:55:51;;;;;;;25.42;9.77;;;8.00;75.10;;;;;;5089430;28;20044;-64